Time;durP1;ratioP1;P1;durP2;ratioP2;P2;SDS_P1;SDS_P2;PMS_P1;PMS_P2;Temp;Humidity;BMP_temperature;BMP_pressure;BME280_temperature;BME280_humidity;BME280_pressure;Samples;Min_cycle;Max_cycle;Signal;HPM_P1;HPM_P2
2022/06/13 00:00:51;;;;;;;0.10;0.10;;;12.80;99.90;;;;;;4881167;29;20051;-85
2022/06/13 00:03:17;;;;;;;0.10;0.10;;;12.80;99.90;;;;;;4888299;29;20135;-85
2022/06/13 00:05:43;;;;;;;0.10;0.10;;;12.80;99.90;;;;;;4880616;29;20140;-85
2022/06/13 00:08:08;;;;;;;0.43;0.30;;;12.70;99.90;;;;;;4874268;29;20053;-85
2022/06/13 00:10:36;;;;;;;0.32;0.20;;;12.70;99.90;;;;;;4881304;29;20127;-85
2022/06/13 00:13:02;;;;;;;0.15;0.15;;;12.70;99.90;;;;;;4879482;29;20515;-83
2022/06/13 00:15:29;;;;;;;0.00;0.00;;;12.70;99.90;;;;;;4862381;29;20478;-82
2022/06/13 00:17:54;;;;;;;0.10;0.10;;;12.80;99.90;;;;;;4877514;29;20037;-83
2022/06/13 00:20:20;;;;;;;0.00;0.00;;;12.80;99.90;;;;;;4881740;29;20089;-83
2022/06/13 00:22:46;;;;;;;3.38;0.50;;;12.90;99.90;;;;;;4880975;29;20041;-83
2022/06/13 00:25:12;;;;;;;0.20;0.20;;;12.90;99.90;;;;;;4865710;29;20407;-83
2022/06/13 00:27:38;;;;;;;0.03;0.03;;;13.00;99.90;;;;;;4864997;29;20052;-83
2022/06/13 00:30:07;;;;;;;0.45;0.43;;;13.10;99.90;;;;;;4864909;29;20127;-84
2022/06/13 00:32:33;;;;;;;0.00;0.00;;;13.10;99.90;;;;;;4880096;29;20396;-85
2022/06/13 00:34:59;;;;;;;0.70;0.68;;;13.10;99.90;;;;;;4876285;29;20043;-85
2022/06/13 00:37:25;;;;;;;0.28;0.28;;;13.20;99.90;;;;;;4883365;29;20092;-85
2022/06/13 00:39:51;;;;;;;1.65;0.60;;;13.20;99.90;;;;;;4883118;29;20048;-85
2022/06/13 00:42:19;;;;;;;0.10;0.10;;;13.20;99.90;;;;;;4862528;29;20092;-85
2022/06/13 00:45:02;;;;;;;0.13;0.13;;;13.20;99.90;;;;;;4882999;29;20480;-85
2022/06/13 00:47:28;;;;;;;0.00;0.00;;;13.20;99.90;;;;;;4879981;29;20184;-83
2022/06/13 00:49:54;;;;;;;0.00;0.00;;;13.20;99.90;;;;;;4880028;29;20136;-83
2022/06/13 00:52:46;;;;;;;0.08;0.08;;;13.20;99.90;;;;;;4864571;29;20040;-83
2022/06/13 00:55:15;;;;;;;0.28;0.28;;;13.20;99.90;;;;;;4877120;29;20583;-83
2022/06/13 00:57:41;;;;;;;0.55;0.55;;;13.20;99.90;;;;;;4878833;29;20484;-83
2022/06/13 01:00:11;;;;;;;1.95;0.38;;;13.10;99.90;;;;;;4870894;29;20606;-83
2022/06/13 01:02:41;;;;;;;0.05;0.05;;;13.10;99.90;;;;;;4870061;29;20512;-83
2022/06/13 01:05:08;;;;;;;0.10;0.10;;;13.10;99.90;;;;;;4879857;29;20060;-83
2022/06/13 01:07:35;;;;;;;0.20;0.20;;;13.00;99.90;;;;;;4890695;29;20052;-83
2022/06/13 01:12:48;;;;;;;0.00;0.00;;;13.00;99.90;;;;;;4879410;29;20057;-83
2022/06/13 01:15:17;;;;;;;0.00;0.00;;;12.80;99.90;;;;;;4876450;29;20054;-83
2022/06/13 01:18:01;;;;;;;0.20;0.17;;;12.80;99.90;;;;;;4889685;29;20045;-83
2022/06/13 01:20:45;;;;;;;0.00;0.00;;;12.80;99.90;;;;;;4895396;29;20189;-85
2022/06/13 01:23:50;;;;;;;0.00;0.00;;;12.70;99.90;;;;;;4879483;29;20140;-85
2022/06/13 01:26:30;;;;;;;0.00;0.00;;;12.70;99.90;;;;;;4883235;29;20041;-85
2022/06/13 01:29:25;;;;;;;0.13;0.13;;;12.70;99.90;;;;;;4898316;29;20076;-85
2022/06/13 01:32:00;;;;;;;0.52;0.43;;;12.70;99.90;;;;;;4897878;29;20373;-85
2022/06/13 01:34:55;;;;;;;0.10;0.10;;;12.70;99.90;;;;;;4882462;29;20449;-85
2022/06/13 01:37:27;;;;;;;0.47;0.40;;;12.70;99.90;;;;;;4894759;29;20052;-82
2022/06/13 01:40:27;;;;;;;0.00;0.00;;;12.70;99.90;;;;;;4895109;29;20060;-83
2022/06/13 01:42:59;;;;;;;0.82;0.82;;;12.70;99.90;;;;;;4894712;29;20049;-83
2022/06/13 01:45:37;;;;;;;0.38;0.38;;;12.70;99.90;;;;;;4895813;29;20045;-83
2022/06/13 01:48:11;;;;;;;0.60;0.50;;;12.60;99.90;;;;;;4863515;29;20504;-83
2022/06/13 01:50:59;;;;;;;0.75;0.70;;;12.70;99.90;;;;;;4882224;29;20484;-83
2022/06/13 01:53:30;;;;;;;0.73;0.68;;;12.70;99.90;;;;;;4897490;29;20041;-83
2022/06/13 01:56:12;;;;;;;0.08;0.08;;;12.80;99.90;;;;;;4897475;29;20063;-83
2022/06/13 01:58:56;;;;;;;0.63;0.63;;;12.90;99.90;;;;;;4898236;29;20361;-83
2022/06/13 02:01:34;;;;;;;11.93;0.45;;;12.90;99.90;;;;;;4897428;29;20104;-83
2022/06/13 02:04:22;;;;;;;0.10;0.10;;;13.00;99.90;;;;;;4878667;29;20456;-83
2022/06/13 02:07:11;;;;;;;0.00;0.00;;;13.00;99.90;;;;;;4878048;29;20059;-83
2022/06/13 02:10:00;;;;;;;0.00;0.00;;;13.00;99.90;;;;;;4878363;29;20061;-83
2022/06/13 02:12:31;;;;;;;0.10;0.10;;;13.00;99.90;;;;;;4878468;29;20037;-83
2022/06/13 02:15:16;;;;;;;0.15;0.15;;;13.10;99.90;;;;;;4878822;29;20507;-83
2022/06/13 02:17:48;;;;;;;0.20;0.20;;;13.20;99.90;;;;;;4880824;29;20072;-83
2022/06/13 02:20:20;;;;;;;0.00;0.00;;;13.10;99.90;;;;;;4887528;29;20041;-83
2022/06/13 02:22:51;;;;;;;0.10;0.10;;;13.20;99.90;;;;;;4878317;29;20071;-84
2022/06/13 02:25:31;;;;;;;0.00;0.00;;;13.20;99.90;;;;;;4877651;29;20059;-84
2022/06/13 02:28:04;;;;;;;0.20;0.20;;;13.30;99.90;;;;;;4878391;29;20140;-83
2022/06/13 02:30:40;;;;;;;0.00;0.00;;;13.20;99.90;;;;;;4884337;29;20403;-83
2022/06/13 02:33:14;;;;;;;0.05;0.05;;;13.20;99.90;;;;;;4878633;29;20041;-83
2022/06/13 02:35:51;;;;;;;0.10;0.10;;;13.20;99.90;;;;;;4878358;29;20045;-83
2022/06/13 02:38:29;;;;;;;0.05;0.05;;;13.20;99.90;;;;;;4875403;29;20480;-83
2022/06/13 02:41:00;;;;;;;0.00;0.00;;;13.30;99.90;;;;;;4861684;29;20054;-83
2022/06/13 02:43:33;;;;;;;0.65;0.40;;;13.20;99.90;;;;;;4878575;29;20053;-84
2022/06/13 02:46:14;;;;;;;0.00;0.00;;;13.20;99.90;;;;;;4878378;29;20080;-85
2022/06/13 02:48:50;;;;;;;1.00;1.00;;;13.20;99.90;;;;;;4893859;29;20539;-85
2022/06/13 02:51:40;;;;;;;0.00;0.00;;;13.20;99.90;;;;;;4878740;29;20123;-85
2022/06/13 02:54:18;;;;;;;0.00;0.00;;;13.20;99.90;;;;;;4897286;29;20045;-85
2022/06/13 02:57:25;;;;;;;0.00;0.00;;;13.20;99.90;;;;;;4897087;29;20127;-85
2022/06/13 03:00:10;;;;;;;0.00;0.00;;;13.20;99.90;;;;;;4860911;29;20061;-83
2022/06/13 03:02:48;;;;;;;2.90;0.35;;;13.30;99.90;;;;;;4875420;29;20173;-83
2022/06/13 03:05:49;;;;;;;0.00;0.00;;;13.30;99.90;;;;;;4878191;29;20507;-83
2022/06/13 03:08:39;;;;;;;0.28;0.28;;;13.30;99.90;;;;;;4878212;29;20045;-83
2022/06/13 03:11:17;;;;;;;0.03;0.03;;;13.30;99.90;;;;;;4872810;29;20632;-83
2022/06/13 03:13:59;;;;;;;0.25;0.15;;;13.30;99.90;;;;;;4883850;29;20503;-83
2022/06/13 03:16:39;;;;;;;0.10;0.10;;;13.30;99.90;;;;;;4882287;29;20401;-83
2022/06/13 03:19:35;;;;;;;0.00;0.00;;;13.30;99.90;;;;;;4897626;29;20065;-83
2022/06/13 03:22:14;;;;;;;2.72;0.45;;;13.30;99.90;;;;;;4881310;29;20037;-83
2022/06/13 03:25:21;;;;;;;0.00;0.00;;;13.30;99.90;;;;;;4881871;29;20037;-83
2022/06/13 03:28:09;;;;;;;0.47;0.43;;;13.30;99.90;;;;;;4878479;29;20512;-83
2022/06/13 03:30:40;;;;;;;0.68;0.43;;;13.20;99.90;;;;;;4878405;29;20088;-83
2022/06/13 03:36:04;;;;;;;0.00;0.00;;;13.20;99.90;;;;;;4881481;29;20121;-85
2022/06/13 03:38:38;;;;;;;0.75;0.75;;;13.10;99.90;;;;;;4881510;29;20049;-85
2022/06/13 03:41:06;;;;;;;0.00;0.00;;;13.20;99.90;;;;;;4897099;29;20096;-85
2022/06/13 03:43:58;;;;;;;0.10;0.10;;;13.10;99.90;;;;;;4880927;29;20044;-85
2022/06/13 03:46:33;;;;;;;0.20;0.20;;;13.10;99.90;;;;;;4881147;29;20076;-85
2022/06/13 03:49:21;;;;;;;0.10;0.10;;;13.10;99.90;;;;;;4880634;29;20060;-85
2022/06/13 03:51:53;;;;;;;0.00;0.00;;;13.10;99.90;;;;;;4896659;29;20393;-83
2022/06/13 03:54:36;;;;;;;0.10;0.10;;;13.10;99.90;;;;;;4865913;29;20037;-83
2022/06/13 03:57:32;;;;;;;0.20;0.20;;;13.10;99.90;;;;;;4881060;29;20044;-83
2022/06/13 04:00:04;;;;;;;0.32;0.32;;;13.10;99.90;;;;;;4887321;29;20128;-83
2022/06/13 04:02:33;;;;;;;0.13;0.13;;;13.20;99.90;;;;;;4891287;29;20090;-83
2022/06/13 04:04:59;;;;;;;0.28;0.20;;;13.20;99.90;;;;;;4881173;29;20396;-83
2022/06/13 04:07:30;;;;;;;0.10;0.10;;;13.20;99.90;;;;;;4880207;29;20052;-83
2022/06/13 04:09:59;;;;;;;0.00;0.00;;;13.20;99.90;;;;;;4880939;29;20052;-83
2022/06/13 04:14:59;;;;;;;0.00;0.00;;;13.20;99.90;;;;;;4899154;29;20049;-82
2022/06/13 04:17:43;;;;;;;0.00;0.00;;;13.10;99.90;;;;;;4899425;29;20487;-82
2022/06/13 04:20:23;;;;;;;0.00;0.00;;;13.00;99.90;;;;;;4899219;29;20085;-82
2022/06/13 04:23:00;;;;;;;0.00;0.00;;;13.00;99.90;;;;;;4897339;29;20056;-84
2022/06/13 04:25:27;;;;;;;0.00;0.00;;;12.90;99.90;;;;;;4865201;29;20045;-84
2022/06/13 04:28:14;;;;;;;0.17;0.17;;;12.90;99.90;;;;;;4893545;29;20049;-84
2022/06/13 04:30:40;;;;;;;;;;;12.90;99.90;;;;;;4899536;29;20044;-84
2022/06/13 04:33:14;;;;;;;0.00;0.00;;;13.00;99.90;;;;;;4899101;29;19926;-84
2022/06/13 04:35:41;;;;;;;0.00;0.00;;;13.20;99.90;;;;;;4899262;29;20052;-84
2022/06/13 04:38:11;;;;;;;0.00;0.00;;;13.30;99.90;;;;;;4899187;29;20055;-85
2022/06/13 04:40:40;;;;;;;0.20;0.13;;;13.40;99.90;;;;;;4898287;29;20132;-82
2022/06/13 04:43:09;;;;;;;0.13;0.13;;;13.50;99.90;;;;;;4899044;29;20395;-82
2022/06/13 04:45:58;;;;;;;0.30;0.30;;;13.50;99.90;;;;;;4882286;29;20495;-82
2022/06/13 04:48:24;;;;;;;0.03;0.03;;;13.20;99.90;;;;;;4898922;29;20056;-82
2022/06/13 04:51:01;;;;;;;0.00;0.00;;;12.80;99.90;;;;;;4898361;29;20044;-84
2022/06/13 04:53:35;;;;;;;0.22;0.20;;;12.30;99.90;;;;;;4898165;29;20119;-83
2022/06/13 04:56:01;;;;;;;0.10;0.10;;;12.20;99.90;;;;;;4898560;29;20043;-83
2022/06/13 04:58:37;;;;;;;0.35;0.35;;;12.10;99.90;;;;;;4880077;29;20600;-83
2022/06/13 05:01:15;;;;;;;0.03;0.03;;;12.00;99.90;;;;;;4898651;29;20071;-83
2022/06/13 05:03:43;;;;;;;0.03;0.03;;;12.00;99.90;;;;;;4882086;29;20053;-84
2022/06/13 05:06:31;;;;;;;0.03;0.03;;;11.90;99.90;;;;;;4892341;29;20045;-83
2022/06/13 05:09:04;;;;;;;0.00;0.00;;;11.80;99.90;;;;;;4892078;29;20120;-83
2022/06/13 05:11:37;;;;;;;0.00;0.00;;;11.80;99.90;;;;;;4898078;29;20092;-83
2022/06/13 05:14:10;;;;;;;0.20;0.20;;;11.90;99.90;;;;;;4877545;29;20056;-83
2022/06/13 05:17:09;;;;;;;0.10;0.10;;;12.00;99.90;;;;;;4889205;29;20131;-83
2022/06/13 05:19:56;;;;;;;0.05;0.05;;;12.20;99.90;;;;;;4898276;29;20497;-83
2022/06/13 05:23:08;;;;;;;0.00;0.00;;;12.30;99.90;;;;;;4882042;29;20040;-83
2022/06/13 05:25:54;;;;;;;0.30;0.30;;;12.50;99.90;;;;;;4877759;29;20514;-83
2022/06/13 05:28:26;;;;;;;0.20;0.20;;;14.10;99.90;;;;;;4880549;29;20041;-83
2022/06/13 05:30:58;;;;;;;0.00;0.00;;;14.00;99.90;;;;;;4885954;29;20533;-84
2022/06/13 05:33:43;;;;;;;0.22;0.22;;;16.30;99.90;;;;;;4888226;29;20051;-84
2022/06/13 05:36:12;;;;;;;0.40;0.30;;;;;;;;;;4898025;29;20123;-83
2022/06/13 05:38:47;;;;;;;0.20;0.20;;;18.60;99.90;;;;;;4897008;29;20076;-84
2022/06/13 05:41:13;;;;;;;0.10;0.10;;;18.90;99.90;;;;;;4894747;29;20047;-84
2022/06/13 05:43:39;;;;;;;0.00;0.00;;;19.60;99.90;;;;;;4909600;29;20571;-84
2022/06/13 05:46:07;;;;;;;0.10;0.10;;;19.70;99.90;;;;;;4876340;29;20049;-86
2022/06/13 05:48:33;;;;;;;2.80;0.55;;;19.60;99.90;;;;;;4883657;29;20044;-86
2022/06/13 05:50:59;;;;;;;0.20;0.20;;;19.10;99.90;;;;;;4907316;29;20401;-85
2022/06/13 05:53:26;;;;;;;0.17;0.17;;;18.70;99.90;;;;;;4896319;29;20120;-86
2022/06/13 05:55:56;;;;;;;0.70;0.65;;;18.80;99.90;;;;;;4889073;29;20128;-86
2022/06/13 05:58:23;;;;;;;0.50;0.25;;;19.40;99.90;;;;;;4897142;29;20119;-86
2022/06/13 06:00:55;;;;;;;0.10;0.10;;;19.40;99.90;;;;;;4896827;29;20472;-86
2022/06/13 06:03:21;;;;;;;0.10;0.10;;;19.10;99.90;;;;;;4896946;29;20043;-84
2022/06/13 06:05:47;;;;;;;0.20;0.20;;;19.20;99.90;;;;;;4896011;29;20048;-84
2022/06/13 06:08:18;;;;;;;0.00;0.00;;;19.00;99.90;;;;;;4896793;29;20040;-84
2022/06/13 06:10:44;;;;;;;0.10;0.10;;;18.40;99.90;;;;;;4897048;29;20377;-84
2022/06/13 06:13:15;;;;;;;0.15;0.10;;;17.10;99.90;;;;;;4888809;29;20128;-85
2022/06/13 06:15:43;;;;;;;0.00;0.00;;;16.70;99.90;;;;;;4886043;29;20554;-85
2022/06/13 06:18:09;;;;;;;0.10;0.10;;;15.80;99.90;;;;;;4881145;29;20051;-84
2022/06/13 06:20:39;;;;;;;0.13;0.10;;;15.70;99.90;;;;;;4897112;29;20479;-84
2022/06/13 06:23:06;;;;;;;0.00;0.00;;;15.40;99.90;;;;;;4874937;29;20506;-84
2022/06/13 06:25:33;;;;;;;0.00;0.00;;;15.20;99.90;;;;;;4885465;29;20045;-84
2022/06/13 06:27:59;;;;;;;0.00;0.00;;;15.20;99.90;;;;;;4878186;29;20045;-85
2022/06/13 06:30:28;;;;;;;0.10;0.10;;;15.30;99.90;;;;;;4878326;29;20041;-85
2022/06/13 06:32:55;;;;;;;0.00;0.00;;;15.60;99.90;;;;;;4874047;29;20036;-84
2022/06/13 06:35:21;;;;;;;0.00;0.00;;;15.80;99.90;;;;;;4900411;29;20037;-85
2022/06/13 06:37:48;;;;;;;0.10;0.10;;;16.60;99.90;;;;;;4877859;29;20506;-87
2022/06/13 06:40:19;;;;;;;1.65;0.88;;;19.30;99.90;;;;;;4895015;29;20049;-88
2022/06/13 06:42:45;;;;;;;0.30;0.30;;;19.70;99.90;;;;;;4895767;29;20400;-87
2022/06/13 06:45:12;;;;;;;0.00;0.00;;;20.40;99.90;;;;;;4896958;29;20041;-87
2022/06/13 06:47:39;;;;;;;0.03;0.03;;;22.40;99.90;;;;;;4887893;29;20085;-88
2022/06/13 06:50:06;;;;;;;0.85;0.85;;;22.40;99.90;;;;;;4866551;29;20074;-88
2022/06/13 06:52:32;;;;;;;0.10;0.10;;;23.50;99.90;;;;;;4885296;29;20392;-87
2022/06/13 07:00:36;;;;;;;0.10;0.10;;;24.90;97.50;;;;;;4897682;29;20197;-87
2022/06/13 07:03:01;;;;;;;0.10;0.10;;;24.20;97.70;;;;;;4898470;29;20053;-87
2022/06/13 07:05:27;;;;;;;0.10;0.10;;;24.00;97.10;;;;;;4898199;29;20123;-87
2022/06/13 07:07:53;;;;;;;0.10;0.10;;;24.30;95.20;;;;;;4900615;29;20460;-86
2022/06/13 07:10:19;;;;;;;0.00;0.00;;;23.70;96.00;;;;;;4883893;29;20055;-87
2022/06/13 07:12:45;;;;;;;0.08;0.08;;;22.80;96.20;;;;;;4894311;29;20131;-88
2022/06/13 07:15:13;;;;;;;0.10;0.10;;;21.80;96.50;;;;;;4890359;29;20080;-88
2022/06/13 07:17:39;;;;;;;0.00;0.00;;;22.30;97.90;;;;;;4899159;29;20083;-88
2022/06/13 07:20:05;;;;;;;0.10;0.10;;;23.30;95.70;;;;;;4884744;29;20083;-88
2022/06/13 07:22:31;;;;;;;0.43;0.10;;;24.10;93.20;;;;;;4900025;29;20072;-88
2022/06/13 07:24:57;;;;;;;0.00;0.00;;;24.00;93.60;;;;;;4884222;29;20530;-87
2022/06/13 07:27:22;;;;;;;0.20;0.20;;;22.70;93.40;;;;;;4899244;29;20040;-84
2022/06/13 07:29:48;;;;;;;0.00;0.00;;;21.30;95.40;;;;;;4869838;29;20413;-83
2022/06/13 07:32:23;;;;;;;2.13;0.52;;;21.50;97.00;;;;;;4883223;29;20462;-84
2022/06/13 07:34:52;;;;;;;0.20;0.20;;;22.90;95.20;;;;;;4882241;29;20045;-85
2022/06/13 07:40:07;;;;;;;0.00;0.00;;;24.30;92.60;;;;;;4900782;29;20051;-85
2022/06/13 07:42:37;;;;;;;0.40;0.40;;;24.60;91.70;;;;;;4892112;29;20107;-85
2022/06/13 07:45:03;;;;;;;0.10;0.10;;;23.70;90.90;;;;;;4889021;29;20048;-86
2022/06/13 07:47:29;;;;;;;0.20;0.20;;;22.60;93.10;;;;;;4899306;29;20052;-86
2022/06/13 07:49:55;;;;;;;0.00;0.00;;;23.10;93.70;;;;;;4884830;29;20456;-84
2022/06/13 07:52:21;;;;;;;0.00;0.00;;;23.30;91.10;;;;;;4900562;29;20044;-87
2022/06/13 07:54:46;;;;;;;0.00;0.00;;;22.60;92.20;;;;;;4899258;29;20092;-88
2022/06/13 07:57:12;;;;;;;0.45;0.45;;;22.20;93.60;;;;;;4900367;29;20044;-87
2022/06/13 07:59:40;;;;;;;0.20;0.20;;;22.60;93.70;;;;;;4869781;29;20044;-87
2022/06/13 08:02:17;;;;;;;0.10;0.10;;;23.80;92.80;;;;;;4899042;29;20184;-85
2022/06/13 08:04:42;;;;;;;0.00;0.00;;;25.20;90.80;;;;;;4899492;29;20500;-85
2022/06/13 08:07:13;;;;;;;0.05;0.05;;;26.40;89.20;;;;;;4903122;29;20099;-85
2022/06/13 08:09:39;;;;;;;0.15;0.10;;;27.40;85.70;;;;;;4871868;29;20048;-85
2022/06/13 08:12:06;;;;;;;0.45;0.45;;;27.60;86.50;;;;;;4899187;29;20049;-85
2022/06/13 08:14:33;;;;;;;0.10;0.10;;;25.80;81.60;;;;;;4899503;29;20112;-85
2022/06/13 08:16:58;;;;;;;0.00;0.00;;;24.00;83.70;;;;;;4899667;29;20515;-82
2022/06/13 08:19:24;;;;;;;0.08;0.08;;;22.20;85.10;;;;;;4900064;29;20044;-82
2022/06/13 08:21:51;;;;;;;0.10;0.10;;;22.00;89.90;;;;;;4883547;29;20386;-83
2022/06/13 08:24:18;;;;;;;0.10;0.10;;;23.50;90.00;;;;;;4890746;29;20127;-83
2022/06/13 08:26:45;;;;;;;0.05;0.05;;;24.80;86.10;;;;;;4892102;29;20078;-82
2022/06/13 08:29:12;;;;;;;0.00;0.00;;;24.10;85.10;;;;;;4899929;29;20084;-82
2022/06/13 08:31:38;;;;;;;0.10;0.10;;;23.10;84.20;;;;;;4899334;29;20135;-82
2022/06/13 08:34:04;;;;;;;0.00;0.00;;;22.50;86.80;;;;;;4884163;29;20044;-85
2022/06/13 08:36:30;;;;;;;0.40;0.40;;;23.80;87.90;;;;;;4881726;29;20033;-85
2022/06/13 08:38:56;;;;;;;0.00;0.00;;;23.80;85.80;;;;;;4898904;29;20039;-85
2022/06/13 08:41:28;;;;;;;0.00;0.00;;;23.20;87.50;;;;;;4899296;29;20143;-84
2022/06/13 08:44:12;;;;;;;1.13;0.30;;;22.40;86.60;;;;;;4899068;29;20041;-85
2022/06/13 08:47:02;;;;;;;0.25;0.20;;;21.30;88.60;;;;;;4896313;29;20056;-84
2022/06/13 08:49:42;;;;;;;0.05;0.03;;;19.70;91.80;;;;;;4865263;29;20112;-84
2022/06/13 08:52:16;;;;;;;0.20;0.20;;;19.60;92.30;;;;;;4887283;29;20084;-85
2022/06/13 08:54:47;;;;;;;0.08;0.08;;;19.10;93.90;;;;;;4884146;29;20096;-84
2022/06/13 08:57:12;;;;;;;0.05;0.05;;;19.40;94.00;;;;;;4891968;29;20383;-85
2022/06/13 08:59:48;;;;;;;1.10;0.43;;;21.60;93.80;;;;;;4884937;29;20128;-84
2022/06/13 09:02:17;;;;;;;0.10;0.10;;;23.40;90.70;;;;;;4899277;29;20047;-85
2022/06/13 09:05:15;;;;;;;0.22;0.22;;;23.60;90.00;;;;;;4899294;29;20079;-85
2022/06/13 09:08:13;;;;;;;0.38;0.38;;;24.30;84.60;;;;;;4876371;29;20044;-85
2022/06/13 09:10:49;;;;;;;0.28;0.25;;;23.80;85.80;;;;;;4897325;29;20092;-85
2022/06/13 09:13:40;;;;;;;0.10;0.10;;;24.00;86.60;;;;;;4898139;29;20061;-85
2022/06/13 09:16:27;;;;;;;0.10;0.10;;;25.50;85.30;;;;;;4880784;29;20045;-85
2022/06/13 09:19:01;;;;;;;0.00;0.00;;;26.10;84.40;;;;;;4880552;29;20503;-85
2022/06/13 09:21:44;;;;;;;0.20;0.20;;;25.10;80.90;;;;;;4869331;29;20045;-85
2022/06/13 09:24:16;;;;;;;0.55;0.55;;;24.10;84.10;;;;;;4898855;29;20482;-83
2022/06/13 09:26:52;;;;;;;1.00;0.95;;;22.90;89.00;;;;;;4898781;29;20052;-83
2022/06/13 09:29:39;;;;;;;0.28;0.28;;;21.80;90.50;;;;;;4898881;29;20488;-83
2022/06/13 09:32:15;;;;;;;0.10;0.10;;;21.40;93.00;;;;;;4896908;29;20049;-84
2022/06/13 09:34:48;;;;;;;0.20;0.20;;;22.20;92.50;;;;;;4870506;29;20491;-84
2022/06/13 09:37:27;;;;;;;0.05;0.05;;;23.60;91.00;;;;;;4882727;29;20076;-83
2022/06/13 09:39:53;;;;;;;0.10;0.10;;;23.40;88.70;;;;;;4898447;29;20037;-85
2022/06/13 09:42:36;;;;;;;2.50;1.85;;;22.80;90.40;;;;;;4883248;29;20431;-85
2022/06/13 09:45:15;;;;;;;0.63;0.63;;;22.00;91.30;;;;;;4898455;29;20043;-85
2022/06/13 09:48:29;;;;;;;0.10;0.10;;;20.60;92.00;;;;;;4897968;29;20095;-85
2022/06/13 09:51:22;;;;;;;0.00;0.00;;;20.10;93.20;;;;;;4856280;29;20095;-85
2022/06/13 09:54:06;;;;;;;1.13;0.15;;;19.50;95.10;;;;;;4889083;29;20241;-84
2022/06/13 09:56:43;;;;;;;0.00;0.00;;;19.70;95.70;;;;;;4882821;29;20051;-83
2022/06/13 09:59:53;;;;;;;0.00;0.00;;;20.40;96.60;;;;;;4897961;29;20041;-83
2022/06/13 10:02:35;;;;;;;0.10;0.10;;;21.40;95.30;;;;;;4862747;29;20559;-83
2022/06/13 10:05:15;;;;;;;0.00;0.00;;;23.80;93.30;;;;;;4893618;29;20546;-83
2022/06/13 10:08:07;;;;;;;0.00;0.00;;;27.20;84.50;;;;;;4897750;29;20483;-84
2022/06/13 10:10:48;;;;;;;0.25;0.25;;;27.40;84.70;;;;;;4886398;29;20049;-83
2022/06/13 10:13:20;;;;;;;0.80;0.38;;;28.40;81.50;;;;;;4891141;29;20131;-83
2022/06/13 10:16:03;;;;;;;0.13;0.13;;;28.90;78.00;;;;;;4896054;29;20049;-84
2022/06/13 10:18:53;;;;;;;0.10;0.10;;;;;;;;;;4881263;29;20534;-83
2022/06/13 10:21:36;;;;;;;1.55;0.63;;;23.90;80.90;;;;;;4880511;29;20079;-83
2022/06/13 10:24:18;;;;;;;0.10;0.10;;;20.60;90.30;;;;;;4885106;29;20182;-83
2022/06/13 10:29:48;;;;;;;0.00;0.00;;;18.30;97.10;;;;;;4896704;29;20491;-84
2022/06/13 10:32:42;;;;;;;0.60;0.60;;;18.00;98.60;;;;;;4897111;29;20091;-83
2022/06/13 10:35:48;;;;;;;0.10;0.10;;;17.30;99.90;;;;;;4897044;29;20139;-83
2022/06/13 10:38:39;;;;;;;0.00;0.00;;;17.30;99.90;;;;;;4884941;29;20041;-83
2022/06/13 10:41:06;;;;;;;0.10;0.10;;;17.30;99.90;;;;;;4878475;29;20139;-83
2022/06/13 10:43:33;;;;;;;0.10;0.10;;;17.40;99.90;;;;;;4878344;29;20053;-83
2022/06/13 10:45:58;;;;;;;1.75;0.50;;;17.50;99.90;;;;;;4867709;29;20043;-83
2022/06/13 10:48:29;;;;;;;0.20;0.20;;;17.50;99.90;;;;;;4878816;29;20044;-84
2022/06/13 10:50:58;;;;;;;0.08;0.08;;;17.60;99.90;;;;;;4897685;29;20041;-84
2022/06/13 10:53:44;;;;;;;1.30;1.20;;;19.50;99.90;;;;;;4896368;29;20044;-84
2022/06/13 10:56:21;;;;;;;0.90;0.83;;;22.50;99.90;;;;;;4897318;29;20092;-84
2022/06/13 10:58:54;;;;;;;0.43;0.43;;;23.40;98.10;;;;;;4894674;29;20040;-83
2022/06/13 11:01:22;;;;;;;0.00;0.00;;;24.30;92.60;;;;;;4881259;29;20055;-84
2022/06/13 11:04:17;;;;;;;0.80;0.75;;;25.10;88.40;;;;;;4887769;29;20131;-85
2022/06/13 11:06:48;;;;;;;0.00;0.00;;;25.10;88.80;;;;;;4896625;29;20514;-85
2022/06/13 11:09:32;;;;;;;0.17;0.17;;;24.50;87.70;;;;;;4870047;29;20041;-85
2022/06/13 11:12:02;;;;;;;0.52;0.40;;;24.80;91.20;;;;;;4895965;29;20079;-85
2022/06/13 11:14:38;;;;;;;0.00;0.00;;;24.50;86.30;;;;;;4879007;29;20044;-86
2022/06/13 11:22:56;;;;;;;0.10;0.10;;;26.10;82.30;;;;;;4889809;29;20128;-85
2022/06/13 11:25:30;;;;;;;0.15;0.15;;;26.10;82.90;;;;;;4891803;29;20168;-84
2022/06/13 11:28:12;;;;;;;0.00;0.00;;;25.70;82.50;;;;;;4894233;29;20072;-85
2022/06/13 11:30:42;;;;;;;1.85;0.75;;;25.00;83.60;;;;;;4878880;29;20177;-85
2022/06/13 11:33:10;;;;;;;0.20;0.20;;;25.00;84.70;;;;;;4900906;29;20052;-85
2022/06/13 11:35:44;;;;;;;1.98;1.35;;;23.70;84.00;;;;;;4896917;29;20132;-85
2022/06/13 11:38:29;;;;;;;0.00;0.00;;;23.00;85.30;;;;;;4896961;29;20387;-83
2022/06/13 11:41:18;;;;;;;0.08;0.08;;;22.80;86.60;;;;;;4900619;29;20048;-83
2022/06/13 11:43:50;;;;;;;0.10;0.10;;;22.20;88.50;;;;;;4899977;29;20087;-83
2022/06/13 11:46:28;;;;;;;0.00;0.00;;;21.70;89.30;;;;;;4900714;29;20056;-83
2022/06/13 11:48:56;;;;;;;0.30;0.20;;;21.40;90.00;;;;;;4886288;29;20107;-83
2022/06/13 11:51:27;;;;;;;0.00;0.00;;;21.50;90.50;;;;;;4881779;29;20087;-83
2022/06/13 11:53:57;;;;;;;0.00;0.00;;;22.60;90.10;;;;;;4896006;29;20048;-85
2022/06/13 11:56:33;;;;;;;0.10;0.10;;;23.40;88.20;;;;;;4900082;29;20436;-85
2022/06/13 11:59:05;;;;;;;1.35;1.25;;;23.50;86.90;;;;;;4898024;29;20052;-85
2022/06/13 12:01:37;;;;;;;0.10;0.10;;;22.60;87.00;;;;;;4901228;29;20040;-85
2022/06/13 12:04:15;;;;;;;0.10;0.10;;;21.80;88.80;;;;;;4899621;29;20131;-85
2022/06/13 12:06:50;;;;;;;0.20;0.20;;;22.00;90.20;;;;;;4900037;29;20072;-85
2022/06/13 12:09:34;;;;;;;0.17;0.10;;;22.30;89.80;;;;;;4883027;29;20041;-85
2022/06/13 12:12:07;;;;;;;0.05;0.05;;;22.00;88.70;;;;;;4897527;29;20048;-84
2022/06/13 12:14:39;;;;;;;0.10;0.10;;;21.10;88.60;;;;;;4907043;29;20524;-84
2022/06/13 12:17:16;;;;;;;0.43;0.43;;;20.90;90.40;;;;;;4884041;29;20391;-84
2022/06/13 12:19:50;;;;;;;0.10;0.10;;;21.60;90.90;;;;;;4912693;29;20059;-84
2022/06/13 12:22:22;;;;;;;0.00;0.00;;;23.50;86.10;;;;;;4884687;29;20044;-84
2022/06/13 12:25:13;;;;;;;0.40;0.40;;;24.00;84.20;;;;;;4906756;29;20176;-85
2022/06/13 12:27:58;;;;;;;0.15;0.15;;;23.30;82.50;;;;;;4876993;29;20049;-83
2022/06/13 12:30:39;;;;;;;0.55;0.55;;;23.20;83.20;;;;;;4893462;29;20048;-83
2022/06/13 12:33:22;;;;;;;0.10;0.10;;;22.60;84.50;;;;;;4910676;29;20041;-83
2022/06/13 12:36:11;;;;;;;0.40;0.28;;;23.10;88.50;;;;;;4882576;29;20123;-83
2022/06/13 12:39:05;;;;;;;0.57;0.45;;;24.10;85.80;;;;;;4914628;29;20044;-84
2022/06/13 12:41:58;;;;;;;0.25;0.25;;;24.50;83.00;;;;;;4895280;29;20048;-83
2022/06/13 12:44:23;;;;;;;0.00;0.00;;;25.30;81.00;;;;;;4894881;29;20396;-83
2022/06/13 12:47:17;;;;;;;0.70;0.22;;;25.40;80.00;;;;;;4891074;29;20072;-83
2022/06/13 12:50:28;;;;;;;0.00;0.00;;;25.50;80.70;;;;;;4888397;29;20052;-83
2022/06/13 12:53:12;;;;;;;0.00;0.00;;;25.80;80.50;;;;;;4890533;29;20164;-83
2022/06/13 12:56:28;;;;;;;0.10;0.10;;;24.70;79.70;;;;;;4906521;29;20500;-83
2022/06/13 12:59:01;;;;;;;0.05;0.05;;;23.20;81.50;;;;;;4883324;29;20131;-83
2022/06/13 13:01:43;;;;;;;0.20;0.20;;;22.30;84.30;;;;;;4896070;29;20100;-84
2022/06/13 13:04:34;;;;;;;0.28;0.28;;;22.00;86.30;;;;;;4896905;29;20555;-83
2022/06/13 13:07:26;;;;;;;0.30;0.30;;;21.90;86.70;;;;;;4898869;29;20041;-84
2022/06/13 13:10:19;;;;;;;0.52;0.17;;;21.40;87.60;;;;;;4883279;29;20125;-84
2022/06/13 13:13:15;;;;;;;0.65;0.65;;;21.10;88.50;;;;;;4873264;29;20049;-83
2022/06/13 13:16:17;;;;;;;0.00;0.00;;;20.90;88.10;;;;;;4897828;29;20040;-84
2022/06/13 13:19:02;;;;;;;0.00;0.00;;;21.00;89.10;;;;;;4881046;29;20120;-84
2022/06/13 13:21:36;;;;;;;0.00;0.00;;;21.30;90.70;;;;;;4898698;29;20126;-84
2022/06/13 13:24:40;;;;;;;0.30;0.30;;;21.80;85.70;;;;;;4878005;29;20055;-83
2022/06/13 13:27:07;;;;;;;0.00;0.00;;;22.00;85.20;;;;;;4888893;29;20490;-84
2022/06/13 13:29:51;;;;;;;0.00;0.00;;;21.80;86.00;;;;;;4877675;29;20099;-84
2022/06/13 13:32:40;;;;;;;0.00;0.00;;;21.60;86.80;;;;;;4893431;29;20056;-85
2022/06/13 13:35:09;;;;;;;0.10;0.10;;;22.30;89.10;;;;;;4897714;29;20033;-84
2022/06/13 13:37:40;;;;;;;0.47;0.47;;;23.00;87.30;;;;;;4883122;29;20044;-85
2022/06/13 13:40:09;;;;;;;0.05;0.05;;;22.90;85.40;;;;;;4908659;29;20126;-84
2022/06/13 13:42:59;;;;;;;0.08;0.08;;;22.40;85.90;;;;;;4917549;29;20040;-84
2022/06/13 13:45:47;;;;;;;0.03;0.03;;;22.60;86.30;;;;;;4891164;29;20045;-84
2022/06/13 13:48:28;;;;;;;0.03;0.03;;;23.60;83.60;;;;;;4894106;29;20440;-85
2022/06/13 13:51:18;;;;;;;0.00;0.00;;;24.60;82.20;;;;;;4879801;29;20045;-86
2022/06/13 13:54:01;;;;;;;0.10;0.10;;;25.30;79.90;;;;;;4884445;29;20044;-86
2022/06/13 13:56:41;;;;;;;0.00;0.00;;;25.60;78.80;;;;;;4898217;29;20119;-85
2022/06/13 13:59:13;;;;;;;0.10;0.10;;;25.60;76.40;;;;;;4896714;29;20052;-86